CheckWX is a tool to help pilots better visualize weather data.  It is not intended as a substitute for an official pre-flight weather briefing.

08:11:09 UTC

KSAR METAR
Sparta Community-Hunter Field Airport
Sparta, Illinois, USA
Current

16 mins ago

KSAR 210755Z AUTO 33003KT 10SM OVC016 M06/M07 A3067 RMK AO2 T10651071
Observed
Jan-21 @ 07:55 UTC
Wind
  • 330° at 3 KTS
Visibility
10 SM
Flight Rules
MVFR
Cloud Levels
  • Overcast at 1,600' AGL
Temperature
-7°C / 19°F
Dewpoint
-7°C / 19°F
Humidity
100%
Altimeter
30.67" Hg
Pressure
1038.62 hPa
Previous

36 mins ago

KSAR 210735Z AUTO 33003KT 10SM BKN016 M07/M07 A3067 RMK AO2 T10661073
Observed
Jan-21 @ 07:35 UTC
Wind
  • 330° at 3 KTS
Visibility
10 SM
Flight Rules
MVFR
Cloud Levels
  • Broken at 1,600' AGL
Temperature
-7°C / 19°F
Dewpoint
-7°C / 19°F
Humidity
100%
Altimeter
30.67" Hg
Pressure
1038.62 hPa
Previous

56 mins ago

KSAR 210715Z AUTO 35003KT 10SM SCT018 M07/M07 A3066 RMK AO2 T10661075
Observed
Jan-21 @ 07:15 UTC
Wind
  • 350° at 3 KTS
Visibility
10 SM
Flight Rules
VFR
Cloud Levels
  • Scattered at 1,800' AGL
Temperature
-7°C / 19°F
Dewpoint
-8°C / 18°F
Humidity
93%
Altimeter
30.66" Hg
Pressure
1038.32 hPa